sensor_id;sensor_type;location;lat;lon;timestamp;temperature;humidity
666;DHT22;315;48.738;9.126;2024-03-02T00:00:21;6.60;99.90
666;DHT22;315;48.738;9.126;2024-03-02T00:02:48;6.60;99.90
666;DHT22;315;48.738;9.126;2024-03-02T00:05:22;6.60;99.90
666;DHT22;315;48.738;9.126;2024-03-02T00:07:55;6.60;99.90
666;DHT22;315;48.738;9.126;2024-03-02T00:10:35;6.60;99.90
666;DHT22;315;48.738;9.126;2024-03-02T00:13:02;6.60;99.90
666;DHT22;315;48.738;9.126;2024-03-02T00:15:45;6.60;99.90
666;DHT22;315;48.738;9.126;2024-03-02T00:18:13;6.60;99.90
666;DHT22;315;48.738;9.126;2024-03-02T00:20:40;6.60;99.90
666;DHT22;315;48.738;9.126;2024-03-02T00:23:09;6.50;99.90
666;DHT22;315;48.738;9.126;2024-03-02T00:25:43;6.40;99.90
666;DHT22;315;48.738;9.126;2024-03-02T00:28:16;6.40;99.90
666;DHT22;315;48.738;9.126;2024-03-02T00:30:58;6.40;99.90
666;DHT22;315;48.738;9.126;2024-03-02T00:33:27;6.40;99.90
666;DHT22;315;48.738;9.126;2024-03-02T00:35:55;6.40;99.90
666;DHT22;315;48.738;9.126;2024-03-02T00:38:21;6.40;99.90
666;DHT22;315;48.738;9.126;2024-03-02T00:40:47;6.40;99.90
666;DHT22;315;48.738;9.126;2024-03-02T00:43:50;6.50;99.90
666;DHT22;315;48.738;9.126;2024-03-02T00:46:19;6.40;99.90
666;DHT22;315;48.738;9.126;2024-03-02T00:48:55;6.50;99.90
666;DHT22;315;48.738;9.126;2024-03-02T00:51:22;6.50;99.90
666;DHT22;315;48.738;9.126;2024-03-02T00:53:49;6.50;99.90
666;DHT22;315;48.738;9.126;2024-03-02T00:56:14;6.50;99.90
666;DHT22;315;48.738;9.126;2024-03-02T00:58:40;6.60;99.90
666;DHT22;315;48.738;9.126;2024-03-02T01:01:06;6.50;99.90
666;DHT22;315;48.738;9.126;2024-03-02T01:03:33;6.50;99.90
666;DHT22;315;48.738;9.126;2024-03-02T01:05:58;6.50;99.90
666;DHT22;315;48.738;9.126;2024-03-02T01:08:24;6.40;99.90
666;DHT22;315;48.738;9.126;2024-03-02T01:10:50;6.40;99.90
666;DHT22;315;48.738;9.126;2024-03-02T01:13:16;6.40;99.90
666;DHT22;315;48.738;9.126;2024-03-02T01:15:41;6.40;99.90
666;DHT22;315;48.738;9.126;2024-03-02T01:18:07;6.30;99.90
666;DHT22;315;48.738;9.126;2024-03-02T01:20:33;6.30;99.90
666;DHT22;315;48.738;9.126;2024-03-02T01:22:58;6.30;99.90
666;DHT22;315;48.738;9.126;2024-03-02T01:25:24;6.20;99.90
666;DHT22;315;48.738;9.126;2024-03-02T01:27:50;6.20;99.90
666;DHT22;315;48.738;9.126;2024-03-02T01:30:15;6.20;99.90
666;DHT22;315;48.738;9.126;2024-03-02T01:32:41;6.20;99.90
666;DHT22;315;48.738;9.126;2024-03-02T01:35:07;6.10;99.90
666;DHT22;315;48.738;9.126;2024-03-02T01:37:33;6.10;99.90
666;DHT22;315;48.738;9.126;2024-03-02T01:39:58;6.10;99.90
666;DHT22;315;48.738;9.126;2024-03-02T01:42:24;6.10;99.90
666;DHT22;315;48.738;9.126;2024-03-02T01:44:50;6.10;99.90
666;DHT22;315;48.738;9.126;2024-03-02T01:47:16;6.10;99.90
666;DHT22;315;48.738;9.126;2024-03-02T01:49:41;6.00;99.90
666;DHT22;315;48.738;9.126;2024-03-02T01:52:07;6.00;99.90
666;DHT22;315;48.738;9.126;2024-03-02T01:54:33;6.00;99.90
666;DHT22;315;48.738;9.126;2024-03-02T01:56:59;6.00;99.90
666;DHT22;315;48.738;9.126;2024-03-02T01:59:25;5.90;99.90
666;DHT22;315;48.738;9.126;2024-03-02T02:01:51;5.90;99.90
666;DHT22;315;48.738;9.126;2024-03-02T02:04:17;5.90;99.90
666;DHT22;315;48.738;9.126;2024-03-02T02:06:44;5.90;99.90
666;DHT22;315;48.738;9.126;2024-03-02T02:09:10;5.80;99.90
666;DHT22;315;48.738;9.126;2024-03-02T02:11:35;5.70;99.90
666;DHT22;315;48.738;9.126;2024-03-02T02:14:01;5.70;99.90
666;DHT22;315;48.738;9.126;2024-03-02T02:16:26;5.70;99.90
666;DHT22;315;48.738;9.126;2024-03-02T02:18:52;5.60;99.90
666;DHT22;315;48.738;9.126;2024-03-02T02:21:17;5.50;99.90
666;DHT22;315;48.738;9.126;2024-03-02T02:23:43;5.50;99.90
666;DHT22;315;48.738;9.126;2024-03-02T02:26:12;5.50;99.90
666;DHT22;315;48.738;9.126;2024-03-02T02:28:37;5.40;99.90
666;DHT22;315;48.738;9.126;2024-03-02T02:31:03;5.40;99.90
666;DHT22;315;48.738;9.126;2024-03-02T02:33:29;5.40;99.90
666;DHT22;315;48.738;9.126;2024-03-02T02:35:54;5.40;99.90
666;DHT22;315;48.738;9.126;2024-03-02T02:38:20;5.40;99.90
666;DHT22;315;48.738;9.126;2024-03-02T02:40:46;5.30;99.90
666;DHT22;315;48.738;9.126;2024-03-02T02:43:11;5.30;99.90
666;DHT22;315;48.738;9.126;2024-03-02T02:45:37;5.30;99.90
666;DHT22;315;48.738;9.126;2024-03-02T02:48:02;5.30;99.90
666;DHT22;315;48.738;9.126;2024-03-02T02:50:28;5.20;99.90
666;DHT22;315;48.738;9.126;2024-03-02T02:52:54;5.20;99.90
666;DHT22;315;48.738;9.126;2024-03-02T02:55:19;5.20;99.90
666;DHT22;315;48.738;9.126;2024-03-02T02:57:45;5.20;99.90
666;DHT22;315;48.738;9.126;2024-03-02T03:00:13;5.10;99.90
666;DHT22;315;48.738;9.126;2024-03-02T03:02:42;5.20;99.90
666;DHT22;315;48.738;9.126;2024-03-02T03:05:10;5.10;99.90
666;DHT22;315;48.738;9.126;2024-03-02T03:07:35;5.10;99.90
666;DHT22;315;48.738;9.126;2024-03-02T03:10:02;5.10;99.90
666;DHT22;315;48.738;9.126;2024-03-02T03:12:28;5.10;99.90
666;DHT22;315;48.738;9.126;2024-03-02T03:14:54;5.10;99.90
666;DHT22;315;48.738;9.126;2024-03-02T03:17:21;5.10;99.90
666;DHT22;315;48.738;9.126;2024-03-02T03:19:47;5.10;99.90
666;DHT22;315;48.738;9.126;2024-03-02T03:22:12;5.00;99.90
666;DHT22;315;48.738;9.126;2024-03-02T03:24:38;5.10;99.90
666;DHT22;315;48.738;9.126;2024-03-02T03:27:04;5.10;99.90
666;DHT22;315;48.738;9.126;2024-03-02T03:29:29;5.00;99.90
666;DHT22;315;48.738;9.126;2024-03-02T03:31:55;5.00;99.90
666;DHT22;315;48.738;9.126;2024-03-02T03:34:20;5.00;99.90
666;DHT22;315;48.738;9.126;2024-03-02T03:36:46;5.00;99.90
666;DHT22;315;48.738;9.126;2024-03-02T03:39:11;5.00;99.90
666;DHT22;315;48.738;9.126;2024-03-02T03:41:37;5.00;99.90
666;DHT22;315;48.738;9.126;2024-03-02T03:44:03;5.00;99.90
666;DHT22;315;48.738;9.126;2024-03-02T03:46:29;5.00;99.90
666;DHT22;315;48.738;9.126;2024-03-02T03:48:54;5.00;99.90
666;DHT22;315;48.738;9.126;2024-03-02T03:51:21;5.00;99.90
666;DHT22;315;48.738;9.126;2024-03-02T03:53:48;5.00;99.90
666;DHT22;315;48.738;9.126;2024-03-02T03:56:14;5.00;99.90
666;DHT22;315;48.738;9.126;2024-03-02T03:58:39;5.00;99.90
666;DHT22;315;48.738;9.126;2024-03-02T04:01:05;5.00;99.90
666;DHT22;315;48.738;9.126;2024-03-02T04:03:30;4.90;99.90
666;DHT22;315;48.738;9.126;2024-03-02T04:05:56;4.90;99.90
666;DHT22;315;48.738;9.126;2024-03-02T04:08:21;4.90;99.90
666;DHT22;315;48.738;9.126;2024-03-02T04:10:47;4.90;99.90
666;DHT22;315;48.738;9.126;2024-03-02T04:13:12;4.90;99.90
666;DHT22;315;48.738;9.126;2024-03-02T04:15:38;4.90;99.90
666;DHT22;315;48.738;9.126;2024-03-02T04:18:04;4.90;99.90
666;DHT22;315;48.738;9.126;2024-03-02T04:20:29;4.90;99.90
666;DHT22;315;48.738;9.126;2024-03-02T04:22:55;4.90;99.90
666;DHT22;315;48.738;9.126;2024-03-02T04:25:21;4.90;99.90
666;DHT22;315;48.738;9.126;2024-03-02T04:27:46;4.90;99.90
666;DHT22;315;48.738;9.126;2024-03-02T04:30:12;4.80;99.90
666;DHT22;315;48.738;9.126;2024-03-02T04:32:38;4.80;99.90
666;DHT22;315;48.738;9.126;2024-03-02T04:35:04;4.80;99.90
666;DHT22;315;48.738;9.126;2024-03-02T04:37:34;4.70;99.90
666;DHT22;315;48.738;9.126;2024-03-02T04:39:59;4.70;99.90
666;DHT22;315;48.738;9.126;2024-03-02T04:42:25;4.70;99.90
666;DHT22;315;48.738;9.126;2024-03-02T04:44:50;4.70;99.90
666;DHT22;315;48.738;9.126;2024-03-02T04:47:16;4.80;99.90
666;DHT22;315;48.738;9.126;2024-03-02T04:49:41;4.70;99.90
666;DHT22;315;48.738;9.126;2024-03-02T04:52:07;4.70;99.90
666;DHT22;315;48.738;9.126;2024-03-02T04:54:32;4.70;99.90
666;DHT22;315;48.738;9.126;2024-03-02T04:57:00;4.70;99.90
666;DHT22;315;48.738;9.126;2024-03-02T04:59:26;4.60;99.90
666;DHT22;315;48.738;9.126;2024-03-02T05:01:52;4.60;99.90
666;DHT22;315;48.738;9.126;2024-03-02T05:04:17;4.60;99.90
666;DHT22;315;48.738;9.126;2024-03-02T05:06:43;4.50;99.90
666;DHT22;315;48.738;9.126;2024-03-02T05:09:09;4.50;99.90
666;DHT22;315;48.738;9.126;2024-03-02T05:11:35;4.50;99.90
666;DHT22;315;48.738;9.126;2024-03-02T05:14:04;4.50;99.90
666;DHT22;315;48.738;9.126;2024-03-02T05:16:32;4.50;99.90
666;DHT22;315;48.738;9.126;2024-03-02T05:18:58;4.40;99.90
666;DHT22;315;48.738;9.126;2024-03-02T05:21:23;4.40;99.90
666;DHT22;315;48.738;9.126;2024-03-02T05:23:49;4.40;99.90
666;DHT22;315;48.738;9.126;2024-03-02T05:26:14;4.40;99.90
666;DHT22;315;48.738;9.126;2024-03-02T05:28:40;4.40;99.90
666;DHT22;315;48.738;9.126;2024-03-02T05:31:06;4.40;99.90
666;DHT22;315;48.738;9.126;2024-03-02T05:33:32;4.40;99.90
666;DHT22;315;48.738;9.126;2024-03-02T05:35:58;4.40;99.90
666;DHT22;315;48.738;9.126;2024-03-02T05:38:24;4.40;99.90
666;DHT22;315;48.738;9.126;2024-03-02T05:40:50;4.40;99.90
666;DHT22;315;48.738;9.126;2024-03-02T05:43:15;4.40;99.90
666;DHT22;315;48.738;9.126;2024-03-02T05:45:41;4.40;99.90
666;DHT22;315;48.738;9.126;2024-03-02T05:48:07;4.40;99.90
666;DHT22;315;48.738;9.126;2024-03-02T05:50:33;4.40;99.90
666;DHT22;315;48.738;9.126;2024-03-02T05:52:58;4.40;99.90
666;DHT22;315;48.738;9.126;2024-03-02T05:55:24;4.30;99.90
666;DHT22;315;48.738;9.126;2024-03-02T05:57:50;4.30;99.90
666;DHT22;315;48.738;9.126;2024-03-02T06:00:41;4.30;99.90
666;DHT22;315;48.738;9.126;2024-03-02T06:03:06;4.30;99.90
666;DHT22;315;48.738;9.126;2024-03-02T06:05:33;4.30;99.90
666;DHT22;315;48.738;9.126;2024-03-02T06:07:58;4.40;99.90
666;DHT22;315;48.738;9.126;2024-03-02T06:10:24;4.40;99.90
666;DHT22;315;48.738;9.126;2024-03-02T06:12:49;4.40;99.90
666;DHT22;315;48.738;9.126;2024-03-02T06:15:15;4.40;99.90
666;DHT22;315;48.738;9.126;2024-03-02T06:17:41;4.50;99.90
666;DHT22;315;48.738;9.126;2024-03-02T06:20:06;4.50;99.90
666;DHT22;315;48.738;9.126;2024-03-02T06:22:34;4.50;99.90
666;DHT22;315;48.738;9.126;2024-03-02T06:25:00;4.60;99.90
666;DHT22;315;48.738;9.126;2024-03-02T06:27:25;4.60;99.90
666;DHT22;315;48.738;9.126;2024-03-02T06:29:51;4.70;99.90
666;DHT22;315;48.738;9.126;2024-03-02T06:32:17;4.80;99.90
666;DHT22;315;48.738;9.126;2024-03-02T06:34:42;4.80;99.90
666;DHT22;315;48.738;9.126;2024-03-02T06:37:08;4.90;99.90
666;DHT22;315;48.738;9.126;2024-03-02T06:39:33;4.90;99.90
666;DHT22;315;48.738;9.126;2024-03-02T06:42:00;5.00;99.90
666;DHT22;315;48.738;9.126;2024-03-02T06:44:25;5.10;99.90
666;DHT22;315;48.738;9.126;2024-03-02T06:46:51;5.20;99.90
666;DHT22;315;48.738;9.126;2024-03-02T06:49:16;5.30;99.90
666;DHT22;315;48.738;9.126;2024-03-02T06:51:43;5.40;99.90
666;DHT22;315;48.738;9.126;2024-03-02T06:54:09;5.40;99.90
666;DHT22;315;48.738;9.126;2024-03-02T06:56:35;5.50;99.90
666;DHT22;315;48.738;9.126;2024-03-02T06:59:00;5.60;99.90
666;DHT22;315;48.738;9.126;2024-03-02T07:01:26;5.60;99.90
666;DHT22;315;48.738;9.126;2024-03-02T07:03:53;5.60;99.90
666;DHT22;315;48.738;9.126;2024-03-02T07:06:19;5.60;99.90
666;DHT22;315;48.738;9.126;2024-03-02T07:08:44;5.60;99.90
666;DHT22;315;48.738;9.126;2024-03-02T07:11:10;5.70;99.90
666;DHT22;315;48.738;9.126;2024-03-02T07:13:35;5.70;99.90
666;DHT22;315;48.738;9.126;2024-03-02T07:16:01;5.90;99.90
666;DHT22;315;48.738;9.126;2024-03-02T07:18:30;6.10;99.90
666;DHT22;315;48.738;9.126;2024-03-02T07:20:56;6.20;99.90
666;DHT22;315;48.738;9.126;2024-03-02T07:23:24;6.40;99.90
666;DHT22;315;48.738;9.126;2024-03-02T07:25:52;6.50;99.90
666;DHT22;315;48.738;9.126;2024-03-02T07:28:24;6.70;99.90
666;DHT22;315;48.738;9.126;2024-03-02T07:31:03;7.00;99.90
666;DHT22;315;48.738;9.126;2024-03-02T07:33:30;7.20;99.90
666;DHT22;315;48.738;9.126;2024-03-02T07:35:56;7.20;99.90
666;DHT22;315;48.738;9.126;2024-03-02T07:38:22;7.00;99.90
666;DHT22;315;48.738;9.126;2024-03-02T07:40:51;6.90;99.90
666;DHT22;315;48.738;9.126;2024-03-02T07:43:17;6.80;99.90
666;DHT22;315;48.738;9.126;2024-03-02T07:45:43;6.70;99.90
666;DHT22;315;48.738;9.126;2024-03-02T07:48:08;6.60;99.90
666;DHT22;315;48.738;9.126;2024-03-02T07:50:34;6.60;99.90
666;DHT22;315;48.738;9.126;2024-03-02T07:53:03;6.60;99.90
666;DHT22;315;48.738;9.126;2024-03-02T07:55:29;6.60;99.90
666;DHT22;315;48.738;9.126;2024-03-02T07:57:55;6.60;99.90
666;DHT22;315;48.738;9.126;2024-03-02T08:00:21;6.60;99.90
666;DHT22;315;48.738;9.126;2024-03-02T08:02:48;6.60;99.90
666;DHT22;315;48.738;9.126;2024-03-02T08:05:13;6.60;99.90
666;DHT22;315;48.738;9.126;2024-03-02T08:07:39;6.70;99.90
666;DHT22;315;48.738;9.126;2024-03-02T08:10:05;6.70;99.90
666;DHT22;315;48.738;9.126;2024-03-02T08:12:31;6.70;99.90
666;DHT22;315;48.738;9.126;2024-03-02T08:14:56;6.80;99.90
666;DHT22;315;48.738;9.126;2024-03-02T08:17:22;7.10;99.90
666;DHT22;315;48.738;9.126;2024-03-02T08:19:48;7.30;99.90
666;DHT22;315;48.738;9.126;2024-03-02T08:22:14;7.40;99.90
666;DHT22;315;48.738;9.126;2024-03-02T08:24:40;7.70;99.90
666;DHT22;315;48.738;9.126;2024-03-02T08:27:06;8.00;99.90
666;DHT22;315;48.738;9.126;2024-03-02T08:29:32;8.20;99.90
666;DHT22;315;48.738;9.126;2024-03-02T08:31:57;8.50;99.90
666;DHT22;315;48.738;9.126;2024-03-02T08:34:23;8.70;99.90
666;DHT22;315;48.738;9.126;2024-03-02T08:36:48;9.10;99.90
666;DHT22;315;48.738;9.126;2024-03-02T08:39:14;9.50;99.90
666;DHT22;315;48.738;9.126;2024-03-02T08:41:45;10.00;99.90
666;DHT22;315;48.738;9.126;2024-03-02T08:44:12;10.30;99.90
666;DHT22;315;48.738;9.126;2024-03-02T08:46:39;10.30;99.90
666;DHT22;315;48.738;9.126;2024-03-02T08:49:04;10.30;99.90
666;DHT22;315;48.738;9.126;2024-03-02T08:51:30;10.40;99.90
666;DHT22;315;48.738;9.126;2024-03-02T08:53:56;11.10;99.90
666;DHT22;315;48.738;9.126;2024-03-02T08:56:23;12.10;99.90
666;DHT22;315;48.738;9.126;2024-03-02T08:58:49;12.40;99.90
666;DHT22;315;48.738;9.126;2024-03-02T09:01:15;12.50;99.90
666;DHT22;315;48.738;9.126;2024-03-02T09:03:42;12.70;99.90
666;DHT22;315;48.738;9.126;2024-03-02T09:06:10;13.00;99.90
666;DHT22;315;48.738;9.126;2024-03-02T09:08:35;13.20;99.90
666;DHT22;315;48.738;9.126;2024-03-02T09:11:05;13.30;99.90
666;DHT22;315;48.738;9.126;2024-03-02T09:13:32;13.10;99.90
666;DHT22;315;48.738;9.126;2024-03-02T09:15:57;13.30;99.90
666;DHT22;315;48.738;9.126;2024-03-02T09:18:23;13.50;99.90
666;DHT22;315;48.738;9.126;2024-03-02T09:20:48;13.60;99.90
666;DHT22;315;48.738;9.126;2024-03-02T09:23:14;14.30;99.90
666;DHT22;315;48.738;9.126;2024-03-02T09:25:40;15.10;99.90
666;DHT22;315;48.738;9.126;2024-03-02T09:28:05;15.30;99.90
666;DHT22;315;48.738;9.126;2024-03-02T09:30:32;15.40;99.90
666;DHT22;315;48.738;9.126;2024-03-02T09:32:57;16.00;99.90
666;DHT22;315;48.738;9.126;2024-03-02T09:35:23;15.60;99.90
666;DHT22;315;48.738;9.126;2024-03-02T09:37:48;16.50;97.70
666;DHT22;315;48.738;9.126;2024-03-02T09:40:14;16.80;95.60
666;DHT22;315;48.738;9.126;2024-03-02T09:42:40;16.80;93.90
666;DHT22;315;48.738;9.126;2024-03-02T09:45:06;16.70;92.60
666;DHT22;315;48.738;9.126;2024-03-02T09:47:32;17.00;91.80
666;DHT22;315;48.738;9.126;2024-03-02T09:49:58;17.40;90.20
666;DHT22;315;48.738;9.126;2024-03-02T09:52:24;17.90;86.50
666;DHT22;315;48.738;9.126;2024-03-02T09:54:50;18.90;78.30
666;DHT22;315;48.738;9.126;2024-03-02T09:57:15;19.40;75.80
666;DHT22;315;48.738;9.126;2024-03-02T09:59:41;18.90;73.80
666;DHT22;315;48.738;9.126;2024-03-02T10:02:07;18.40;73.90
666;DHT22;315;48.738;9.126;2024-03-02T10:04:33;18.60;73.70
666;DHT22;315;48.738;9.126;2024-03-02T10:07:17;18.50;71.20
666;DHT22;315;48.738;9.126;2024-03-02T10:09:45;18.20;72.80
666;DHT22;315;48.738;9.126;2024-03-02T10:12:13;18.20;74.10
666;DHT22;315;48.738;9.126;2024-03-02T10:14:39;18.10;72.40
666;DHT22;315;48.738;9.126;2024-03-02T10:17:09;18.40;72.30
666;DHT22;315;48.738;9.126;2024-03-02T10:19:35;19.70;69.10
666;DHT22;315;48.738;9.126;2024-03-02T10:22:03;20.60;64.10
666;DHT22;315;48.738;9.126;2024-03-02T10:27:15;22.10;57.40
666;DHT22;315;48.738;9.126;2024-03-02T10:29:40;22.80;54.10
666;DHT22;315;48.738;9.126;2024-03-02T10:32:09;21.70;52.70
666;DHT22;315;48.738;9.126;2024-03-02T10:34:35;21.40;53.20
666;DHT22;315;48.738;9.126;2024-03-02T10:37:01;22.80;51.40
666;DHT22;315;48.738;9.126;2024-03-02T10:39:28;22.90;49.20
666;DHT22;315;48.738;9.126;2024-03-02T10:41:54;22.10;50.20
666;DHT22;315;48.738;9.126;2024-03-02T10:44:22;21.80;48.90
666;DHT22;315;48.738;9.126;2024-03-02T10:46:49;22.70;49.30
666;DHT22;315;48.738;9.126;2024-03-02T10:49:16;23.30;47.50
666;DHT22;315;48.738;9.126;2024-03-02T10:51:43;22.60;46.50
666;DHT22;315;48.738;9.126;2024-03-02T10:54:08;23.00;46.80
666;DHT22;315;48.738;9.126;2024-03-02T10:56:39;22.90;44.30
666;DHT22;315;48.738;9.126;2024-03-02T10:59:27;24.10;44.00
666;DHT22;315;48.738;9.126;2024-03-02T11:01:59;24.10;42.70
666;DHT22;315;48.738;9.126;2024-03-02T11:04:26;24.90;41.40
666;DHT22;315;48.738;9.126;2024-03-02T11:07:04;25.30;39.60
666;DHT22;315;48.738;9.126;2024-03-02T11:09:30;25.60;37.90
666;DHT22;315;48.738;9.126;2024-03-02T11:12:06;25.40;38.50
666;DHT22;315;48.738;9.126;2024-03-02T11:14:37;26.30;37.40
666;DHT22;315;48.738;9.126;2024-03-02T11:17:06;26.60;36.00
666;DHT22;315;48.738;9.126;2024-03-02T11:19:33;26.30;35.40
666;DHT22;315;48.738;9.126;2024-03-02T11:21:59;26.60;36.50
666;DHT22;315;48.738;9.126;2024-03-02T11:27:02;27.00;33.00
666;DHT22;315;48.738;9.126;2024-03-02T11:32:09;28.50;31.40
666;DHT22;315;48.738;9.126;2024-03-02T11:34:38;27.30;31.30
666;DHT22;315;48.738;9.126;2024-03-02T11:37:10;26.00;32.80
666;DHT22;315;48.738;9.126;2024-03-02T11:39:36;25.00;32.10
666;DHT22;315;48.738;9.126;2024-03-02T11:42:08;26.70;32.10
666;DHT22;315;48.738;9.126;2024-03-02T11:44:37;27.20;30.90
666;DHT22;315;48.738;9.126;2024-03-02T11:47:06;25.00;31.60
666;DHT22;315;48.738;9.126;2024-03-02T11:49:51;25.00;32.50
666;DHT22;315;48.738;9.126;2024-03-02T11:52:17;24.10;33.70
666;DHT22;315;48.738;9.126;2024-03-02T11:54:47;24.30;33.50
666;DHT22;315;48.738;9.126;2024-03-02T11:57:15;23.00;34.30
666;DHT22;315;48.738;9.126;2024-03-02T11:59:41;23.20;35.00
666;DHT22;315;48.738;9.126;2024-03-02T12:02:16;22.80;34.90
666;DHT22;315;48.738;9.126;2024-03-02T12:04:43;21.70;35.70
666;DHT22;315;48.738;9.126;2024-03-02T12:07:09;22.40;36.80
666;DHT22;315;48.738;9.126;2024-03-02T12:09:34;24.40;33.70
666;DHT22;315;48.738;9.126;2024-03-02T12:12:10;26.20;31.10
666;DHT22;315;48.738;9.126;2024-03-02T12:14:37;27.00;29.90
666;DHT22;315;48.738;9.126;2024-03-02T12:17:03;28.10;29.10
666;DHT22;315;48.738;9.126;2024-03-02T12:19:30;27.80;28.40
666;DHT22;315;48.738;9.126;2024-03-02T12:21:57;27.20;29.10
666;DHT22;315;48.738;9.126;2024-03-02T12:24:23;27.20;29.10
666;DHT22;315;48.738;9.126;2024-03-02T12:26:53;25.70;29.40
666;DHT22;315;48.738;9.126;2024-03-02T12:29:22;26.40;29.70
666;DHT22;315;48.738;9.126;2024-03-02T12:31:48;26.20;29.30
666;DHT22;315;48.738;9.126;2024-03-02T12:34:15;26.80;29.90
666;DHT22;315;48.738;9.126;2024-03-02T12:36:41;26.10;29.20
666;DHT22;315;48.738;9.126;2024-03-02T12:39:08;26.10;30.00
666;DHT22;315;48.738;9.126;2024-03-02T12:41:37;27.80;28.90
666;DHT22;315;48.738;9.126;2024-03-02T12:44:05;28.40;27.90
666;DHT22;315;48.738;9.126;2024-03-02T12:46:32;29.20;27.10
666;DHT22;315;48.738;9.126;2024-03-02T12:49:08;29.70;26.60
666;DHT22;315;48.738;9.126;2024-03-02T12:51:35;29.10;26.70
666;DHT22;315;48.738;9.126;2024-03-02T12:54:01;31.20;25.40
666;DHT22;315;48.738;9.126;2024-03-02T12:56:26;32.10;24.70
666;DHT22;315;48.738;9.126;2024-03-02T12:58:55;31.90;24.20
666;DHT22;315;48.738;9.126;2024-03-02T13:01:21;30.80;24.30
666;DHT22;315;48.738;9.126;2024-03-02T13:03:50;30.40;24.00
666;DHT22;315;48.738;9.126;2024-03-02T13:06:21;29.50;24.80
666;DHT22;315;48.738;9.126;2024-03-02T13:08:46;30.90;24.60
666;DHT22;315;48.738;9.126;2024-03-02T13:11:13;31.80;23.50
666;DHT22;315;48.738;9.126;2024-03-02T13:13:41;31.40;22.80
666;DHT22;315;48.738;9.126;2024-03-02T13:16:10;30.10;23.40
666;DHT22;315;48.738;9.126;2024-03-02T13:18:37;29.60;24.20
666;DHT22;315;48.738;9.126;2024-03-02T13:21:03;31.30;23.60
666;DHT22;315;48.738;9.126;2024-03-02T13:23:29;33.00;22.30
666;DHT22;315;48.738;9.126;2024-03-02T13:25:56;32.90;22.00
666;DHT22;315;48.738;9.126;2024-03-02T13:28:23;30.20;22.30
666;DHT22;315;48.738;9.126;2024-03-02T13:30:49;31.50;22.60
666;DHT22;315;48.738;9.126;2024-03-02T13:33:14;33.40;21.30
666;DHT22;315;48.738;9.126;2024-03-02T13:35:40;34.70;20.60
666;DHT22;315;48.738;9.126;2024-03-02T13:38:06;35.70;19.40
666;DHT22;315;48.738;9.126;2024-03-02T13:40:31;36.60;18.90
666;DHT22;315;48.738;9.126;2024-03-02T13:43:01;35.80;18.30
666;DHT22;315;48.738;9.126;2024-03-02T13:45:27;36.10;18.40
666;DHT22;315;48.738;9.126;2024-03-02T13:47:53;35.10;18.40
666;DHT22;315;48.738;9.126;2024-03-02T13:50:19;35.60;18.10
666;DHT22;315;48.738;9.126;2024-03-02T13:52:45;34.30;18.30
666;DHT22;315;48.738;9.126;2024-03-02T13:55:10;30.60;19.80
666;DHT22;315;48.738;9.126;2024-03-02T13:57:36;30.90;20.20
666;DHT22;315;48.738;9.126;2024-03-02T14:00:02;30.10;20.40
666;DHT22;315;48.738;9.126;2024-03-02T14:02:28;28.10;21.10
666;DHT22;315;48.738;9.126;2024-03-02T14:04:54;27.00;22.30
666;DHT22;315;48.738;9.126;2024-03-02T14:07:19;26.80;22.70
666;DHT22;315;48.738;9.126;2024-03-02T14:09:45;26.50;22.90
666;DHT22;315;48.738;9.126;2024-03-02T14:12:12;26.00;23.70
666;DHT22;315;48.738;9.126;2024-03-02T14:14:38;25.50;23.90
666;DHT22;315;48.738;9.126;2024-03-02T14:17:04;24.50;24.70
666;DHT22;315;48.738;9.126;2024-03-02T14:19:32;23.60;25.40
666;DHT22;315;48.738;9.126;2024-03-02T14:21:58;23.00;26.10
666;DHT22;315;48.738;9.126;2024-03-02T14:24:23;22.20;26.90
666;DHT22;315;48.738;9.126;2024-03-02T14:26:53;21.30;27.50
666;DHT22;315;48.738;9.126;2024-03-02T14:29:19;20.70;28.40
666;DHT22;315;48.738;9.126;2024-03-02T14:31:45;19.80;29.40
666;DHT22;315;48.738;9.126;2024-03-02T14:34:14;19.20;30.10
666;DHT22;315;48.738;9.126;2024-03-02T14:36:39;18.70;31.50
666;DHT22;315;48.738;9.126;2024-03-02T14:39:05;18.50;32.10
666;DHT22;315;48.738;9.126;2024-03-02T14:41:35;18.50;31.90
666;DHT22;315;48.738;9.126;2024-03-02T14:44:01;18.40;32.30
666;DHT22;315;48.738;9.126;2024-03-02T14:46:26;17.90;33.10
666;DHT22;315;48.738;9.126;2024-03-02T14:48:52;17.60;34.10
666;DHT22;315;48.738;9.126;2024-03-02T14:51:18;17.40;34.60
666;DHT22;315;48.738;9.126;2024-03-02T14:53:43;17.40;35.50
666;DHT22;315;48.738;9.126;2024-03-02T14:56:09;17.40;34.80
666;DHT22;315;48.738;9.126;2024-03-02T14:58:35;17.30;34.90
666;DHT22;315;48.738;9.126;2024-03-02T15:01:02;17.10;34.90
666;DHT22;315;48.738;9.126;2024-03-02T15:03:28;17.00;35.60
666;DHT22;315;48.738;9.126;2024-03-02T15:05:53;16.80;36.20
666;DHT22;315;48.738;9.126;2024-03-02T15:08:19;16.90;35.80
666;DHT22;315;48.738;9.126;2024-03-02T15:10:44;16.70;36.30
666;DHT22;315;48.738;9.126;2024-03-02T15:13:10;16.40;36.90
666;DHT22;315;48.738;9.126;2024-03-02T15:15:36;16.20;37.90
666;DHT22;315;48.738;9.126;2024-03-02T15:18:02;16.10;39.10
666;DHT22;315;48.738;9.126;2024-03-02T15:20:29;16.20;39.90
666;DHT22;315;48.738;9.126;2024-03-02T15:22:54;16.20;39.90
666;DHT22;315;48.738;9.126;2024-03-02T15:25:20;15.90;40.30
666;DHT22;315;48.738;9.126;2024-03-02T15:27:45;15.70;39.50
666;DHT22;315;48.738;9.126;2024-03-02T15:30:11;15.60;40.30
666;DHT22;315;48.738;9.126;2024-03-02T15:32:37;15.50;40.00
666;DHT22;315;48.738;9.126;2024-03-02T15:35:04;15.40;40.70
666;DHT22;315;48.738;9.126;2024-03-02T15:37:30;15.30;40.90
666;DHT22;315;48.738;9.126;2024-03-02T15:39:56;15.20;41.60
666;DHT22;315;48.738;9.126;2024-03-02T15:42:21;15.20;42.70
666;DHT22;315;48.738;9.126;2024-03-02T15:44:49;15.10;42.60
666;DHT22;315;48.738;9.126;2024-03-02T15:47:14;15.00;42.50
666;DHT22;315;48.738;9.126;2024-03-02T15:49:40;15.00;43.10
666;DHT22;315;48.738;9.126;2024-03-02T15:52:06;14.90;43.70
666;DHT22;315;48.738;9.126;2024-03-02T15:54:31;14.90;44.20
666;DHT22;315;48.738;9.126;2024-03-02T15:56:57;14.80;44.60
666;DHT22;315;48.738;9.126;2024-03-02T15:59:22;14.70;45.10
666;DHT22;315;48.738;9.126;2024-03-02T16:01:48;14.70;46.30
666;DHT22;315;48.738;9.126;2024-03-02T16:04:13;14.50;48.10
666;DHT22;315;48.738;9.126;2024-03-02T16:06:39;14.30;50.40
666;DHT22;315;48.738;9.126;2024-03-02T16:09:04;14.30;51.90
666;DHT22;315;48.738;9.126;2024-03-02T16:11:30;14.40;53.20
666;DHT22;315;48.738;9.126;2024-03-02T16:13:56;14.30;55.00
666;DHT22;315;48.738;9.126;2024-03-02T16:16:21;14.20;57.10
666;DHT22;315;48.738;9.126;2024-03-02T16:18:47;14.20;58.00
666;DHT22;315;48.738;9.126;2024-03-02T16:21:12;14.20;60.20
666;DHT22;315;48.738;9.126;2024-03-02T16:23:38;14.00;64.40
666;DHT22;315;48.738;9.126;2024-03-02T16:26:04;13.90;67.60
666;DHT22;315;48.738;9.126;2024-03-02T16:28:30;13.80;70.50
666;DHT22;315;48.738;9.126;2024-03-02T16:30:55;13.70;73.10
666;DHT22;315;48.738;9.126;2024-03-02T16:33:21;13.70;75.60
666;DHT22;315;48.738;9.126;2024-03-02T16:35:46;13.70;76.40
666;DHT22;315;48.738;9.126;2024-03-02T16:38:14;13.60;77.80
666;DHT22;315;48.738;9.126;2024-03-02T16:40:40;13.60;80.80
666;DHT22;315;48.738;9.126;2024-03-02T16:43:05;13.60;81.90
666;DHT22;315;48.738;9.126;2024-03-02T16:45:31;13.60;83.70
666;DHT22;315;48.738;9.126;2024-03-02T16:47:57;13.50;86.20